sensor_id;sensor_type;location;lat;lon;timestamp;P1;durP1;ratioP1;P2;durP2;ratioP2
33160;SDS011;19522;45.656;11.302;2023-06-26T00:01:17;4.88;;;3.63;;
33160;SDS011;19522;45.656;11.302;2023-06-26T00:03:45;4.90;;;3.10;;
33160;SDS011;19522;45.656;11.302;2023-06-26T00:06:12;4.75;;;2.92;;
33160;SDS011;19522;45.656;11.302;2023-06-26T00:08:38;5.43;;;3.08;;
33160;SDS011;19522;45.656;11.302;2023-06-26T00:11:03;5.05;;;3.50;;
33160;SDS011;19522;45.656;11.302;2023-06-26T00:13:29;6.15;;;3.63;;
33160;SDS011;19522;45.656;11.302;2023-06-26T00:15:54;5.03;;;3.10;;
33160;SDS011;19522;45.656;11.302;2023-06-26T00:18:20;5.00;;;3.08;;
33160;SDS011;19522;45.656;11.302;2023-06-26T00:20:45;22.58;;;20.70;;
33160;SDS011;19522;45.656;11.302;2023-06-26T00:23:11;5.38;;;3.33;;
33160;SDS011;19522;45.656;11.302;2023-06-26T00:25:38;3.88;;;2.53;;
33160;SDS011;19522;45.656;11.302;2023-06-26T00:28:04;6.40;;;2.88;;
33160;SDS011;19522;45.656;11.302;2023-06-26T00:30:29;4.28;;;3.00;;
33160;SDS011;19522;45.656;11.302;2023-06-26T00:32:55;4.20;;;2.90;;
33160;SDS011;19522;45.656;11.302;2023-06-26T00:35:20;5.85;;;3.17;;
33160;SDS011;19522;45.656;11.302;2023-06-26T00:37:46;4.78;;;3.38;;
33160;SDS011;19522;45.656;11.302;2023-06-26T00:40:12;4.65;;;2.95;;
33160;SDS011;19522;45.656;11.302;2023-06-26T00:42:40;4.10;;;3.10;;
33160;SDS011;19522;45.656;11.302;2023-06-26T00:45:06;5.13;;;3.40;;
33160;SDS011;19522;45.656;11.302;2023-06-26T00:47:32;5.90;;;3.30;;
33160;SDS011;19522;45.656;11.302;2023-06-26T00:49:57;4.43;;;2.58;;
33160;SDS011;19522;45.656;11.302;2023-06-26T00:52:23;8.77;;;3.22;;
33160;SDS011;19522;45.656;11.302;2023-06-26T00:54:49;4.53;;;3.28;;
33160;SDS011;19522;45.656;11.302;2023-06-26T00:57:16;6.63;;;4.22;;
33160;SDS011;19522;45.656;11.302;2023-06-26T00:59:42;6.35;;;3.15;;
33160;SDS011;19522;45.656;11.302;2023-06-26T01:02:08;5.00;;;3.13;;
33160;SDS011;19522;45.656;11.302;2023-06-26T01:04:34;4.38;;;2.85;;
33160;SDS011;19522;45.656;11.302;2023-06-26T01:07:01;5.85;;;3.40;;
33160;SDS011;19522;45.656;11.302;2023-06-26T01:09:27;5.60;;;3.20;;
33160;SDS011;19522;45.656;11.302;2023-06-26T01:11:54;4.63;;;2.78;;
33160;SDS011;19522;45.656;11.302;2023-06-26T01:14:20;4.28;;;2.90;;
33160;SDS011;19522;45.656;11.302;2023-06-26T01:16:45;4.60;;;3.00;;
33160;SDS011;19522;45.656;11.302;2023-06-26T01:19:24;7.05;;;3.47;;
33160;SDS011;19522;45.656;11.302;2023-06-26T01:21:55;6.85;;;3.35;;
33160;SDS011;19522;45.656;11.302;2023-06-26T01:24:25;5.78;;;3.30;;
33160;SDS011;19522;45.656;11.302;2023-06-26T01:26:58;4.80;;;3.10;;
33160;SDS011;19522;45.656;11.302;2023-06-26T01:29:27;4.53;;;2.92;;
33160;SDS011;19522;45.656;11.302;2023-06-26T01:31:55;4.88;;;3.00;;
33160;SDS011;19522;45.656;11.302;2023-06-26T01:34:21;4.80;;;3.20;;
33160;SDS011;19522;45.656;11.302;2023-06-26T01:36:46;5.85;;;2.85;;
33160;SDS011;19522;45.656;11.302;2023-06-26T01:39:15;4.28;;;2.85;;
33160;SDS011;19522;45.656;11.302;2023-06-26T01:41:41;4.25;;;3.13;;
33160;SDS011;19522;45.656;11.302;2023-06-26T01:47:04;4.68;;;2.67;;
33160;SDS011;19522;45.656;11.302;2023-06-26T01:52:27;4.03;;;3.08;;
33160;SDS011;19522;45.656;11.302;2023-06-26T01:57:30;4.43;;;3.20;;
33160;SDS011;19522;45.656;11.302;2023-06-26T01:59:57;4.70;;;2.83;;
33160;SDS011;19522;45.656;11.302;2023-06-26T02:02:24;5.47;;;3.00;;
33160;SDS011;19522;45.656;11.302;2023-06-26T02:04:50;5.30;;;2.83;;
33160;SDS011;19522;45.656;11.302;2023-06-26T02:07:16;4.68;;;3.00;;
33160;SDS011;19522;45.656;11.302;2023-06-26T02:09:42;5.20;;;3.28;;
33160;SDS011;19522;45.656;11.302;2023-06-26T02:12:08;4.57;;;3.40;;
33160;SDS011;19522;45.656;11.302;2023-06-26T02:14:34;4.43;;;3.28;;
33160;SDS011;19522;45.656;11.302;2023-06-26T02:17:00;6.82;;;3.38;;
33160;SDS011;19522;45.656;11.302;2023-06-26T02:19:25;4.82;;;2.92;;
33160;SDS011;19522;45.656;11.302;2023-06-26T02:21:52;6.30;;;3.60;;
33160;SDS011;19522;45.656;11.302;2023-06-26T02:24:18;5.95;;;3.55;;
33160;SDS011;19522;45.656;11.302;2023-06-26T02:26:44;5.68;;;3.00;;
33160;SDS011;19522;45.656;11.302;2023-06-26T02:29:10;5.40;;;2.97;;
33160;SDS011;19522;45.656;11.302;2023-06-26T02:31:36;7.88;;;3.33;;
33160;SDS011;19522;45.656;11.302;2023-06-26T02:34:02;5.88;;;5.28;;
33160;SDS011;19522;45.656;11.302;2023-06-26T02:36:27;5.30;;;3.42;;
33160;SDS011;19522;45.656;11.302;2023-06-26T02:38:53;4.97;;;3.58;;
33160;SDS011;19522;45.656;11.302;2023-06-26T02:41:18;3.95;;;2.92;;
33160;SDS011;19522;45.656;11.302;2023-06-26T02:43:44;6.30;;;3.33;;
33160;SDS011;19522;45.656;11.302;2023-06-26T02:46:09;5.97;;;3.20;;
33160;SDS011;19522;45.656;11.302;2023-06-26T02:48:35;4.68;;;3.03;;
33160;SDS011;19522;45.656;11.302;2023-06-26T02:51:00;4.38;;;3.22;;
33160;SDS011;19522;45.656;11.302;2023-06-26T02:53:25;5.30;;;3.28;;
33160;SDS011;19522;45.656;11.302;2023-06-26T02:55:54;4.88;;;3.40;;
33160;SDS011;19522;45.656;11.302;2023-06-26T02:58:19;5.45;;;3.33;;
33160;SDS011;19522;45.656;11.302;2023-06-26T03:00:45;4.47;;;3.08;;
33160;SDS011;19522;45.656;11.302;2023-06-26T03:03:12;6.80;;;3.17;;
33160;SDS011;19522;45.656;11.302;2023-06-26T03:05:38;5.20;;;3.40;;
33160;SDS011;19522;45.656;11.302;2023-06-26T03:08:06;4.80;;;3.10;;
33160;SDS011;19522;45.656;11.302;2023-06-26T03:10:33;4.88;;;3.25;;
33160;SDS011;19522;45.656;11.302;2023-06-26T03:12:59;6.78;;;3.50;;
33160;SDS011;19522;45.656;11.302;2023-06-26T03:15:24;6.03;;;3.65;;
33160;SDS011;19522;45.656;11.302;2023-06-26T03:17:50;5.70;;;2.85;;
33160;SDS011;19522;45.656;11.302;2023-06-26T03:20:15;5.15;;;3.53;;
33160;SDS011;19522;45.656;11.302;2023-06-26T03:22:41;5.25;;;3.05;;
33160;SDS011;19522;45.656;11.302;2023-06-26T03:25:10;4.53;;;3.42;;
33160;SDS011;19522;45.656;11.302;2023-06-26T03:27:35;4.50;;;3.13;;
33160;SDS011;19522;45.656;11.302;2023-06-26T03:30:01;4.90;;;3.13;;
33160;SDS011;19522;45.656;11.302;2023-06-26T03:32:26;5.65;;;3.30;;
33160;SDS011;19522;45.656;11.302;2023-06-26T03:34:52;4.78;;;3.65;;
33160;SDS011;19522;45.656;11.302;2023-06-26T03:37:21;6.68;;;3.30;;
33160;SDS011;19522;45.656;11.302;2023-06-26T03:39:47;5.25;;;3.47;;
33160;SDS011;19522;45.656;11.302;2023-06-26T03:42:12;5.72;;;3.25;;
33160;SDS011;19522;45.656;11.302;2023-06-26T03:44:38;3.95;;;3.08;;
33160;SDS011;19522;45.656;11.302;2023-06-26T03:47:04;5.95;;;3.47;;
33160;SDS011;19522;45.656;11.302;2023-06-26T03:49:29;4.63;;;3.22;;
33160;SDS011;19522;45.656;11.302;2023-06-26T03:51:55;5.30;;;3.60;;
33160;SDS011;19522;45.656;11.302;2023-06-26T03:56:55;5.28;;;3.80;;
33160;SDS011;19522;45.656;11.302;2023-06-26T03:59:21;5.28;;;3.08;;
33160;SDS011;19522;45.656;11.302;2023-06-26T04:01:47;4.85;;;2.80;;
33160;SDS011;19522;45.656;11.302;2023-06-26T04:04:12;4.25;;;3.25;;
33160;SDS011;19522;45.656;11.302;2023-06-26T04:06:38;6.18;;;3.10;;
33160;SDS011;19522;45.656;11.302;2023-06-26T04:09:04;4.80;;;3.10;;
33160;SDS011;19522;45.656;11.302;2023-06-26T04:11:30;4.70;;;3.40;;
33160;SDS011;19522;45.656;11.302;2023-06-26T04:13:56;5.03;;;3.17;;
33160;SDS011;19522;45.656;11.302;2023-06-26T04:16:21;4.22;;;3.10;;
33160;SDS011;19522;45.656;11.302;2023-06-26T04:18:50;5.05;;;3.30;;
33160;SDS011;19522;45.656;11.302;2023-06-26T04:21:17;5.13;;;3.25;;
33160;SDS011;19522;45.656;11.302;2023-06-26T04:23:43;5.43;;;3.05;;
33160;SDS011;19522;45.656;11.302;2023-06-26T04:26:08;3.97;;;3.05;;
33160;SDS011;19522;45.656;11.302;2023-06-26T04:28:39;5.68;;;3.50;;
33160;SDS011;19522;45.656;11.302;2023-06-26T04:31:05;4.85;;;3.30;;
33160;SDS011;19522;45.656;11.302;2023-06-26T04:33:30;3.97;;;2.97;;
33160;SDS011;19522;45.656;11.302;2023-06-26T04:35:56;4.80;;;3.35;;
33160;SDS011;19522;45.656;11.302;2023-06-26T04:38:22;5.43;;;3.13;;
33160;SDS011;19522;45.656;11.302;2023-06-26T04:40:48;5.95;;;3.13;;
33160;SDS011;19522;45.656;11.302;2023-06-26T04:43:14;4.55;;;3.45;;
33160;SDS011;19522;45.656;11.302;2023-06-26T04:45:40;3.97;;;3.15;;
33160;SDS011;19522;45.656;11.302;2023-06-26T04:48:06;4.15;;;3.17;;
33160;SDS011;19522;45.656;11.302;2023-06-26T04:50:31;5.43;;;3.67;;
33160;SDS011;19522;45.656;11.302;2023-06-26T04:53:01;5.63;;;3.30;;
33160;SDS011;19522;45.656;11.302;2023-06-26T04:55:27;3.83;;;3.08;;
33160;SDS011;19522;45.656;11.302;2023-06-26T04:57:53;5.20;;;3.60;;
33160;SDS011;19522;45.656;11.302;2023-06-26T05:00:19;4.22;;;2.97;;
33160;SDS011;19522;45.656;11.302;2023-06-26T05:02:44;5.85;;;3.47;;
33160;SDS011;19522;45.656;11.302;2023-06-26T05:05:10;7.00;;;3.70;;
33160;SDS011;19522;45.656;11.302;2023-06-26T05:07:38;4.25;;;2.95;;
33160;SDS011;19522;45.656;11.302;2023-06-26T05:10:03;4.95;;;3.80;;
33160;SDS011;19522;45.656;11.302;2023-06-26T05:12:33;4.50;;;3.17;;
33160;SDS011;19522;45.656;11.302;2023-06-26T05:14:58;5.78;;;3.05;;
33160;SDS011;19522;45.656;11.302;2023-06-26T05:17:24;3.65;;;2.90;;
33160;SDS011;19522;45.656;11.302;2023-06-26T05:19:50;5.20;;;3.05;;
33160;SDS011;19522;45.656;11.302;2023-06-26T05:22:16;6.70;;;3.60;;
33160;SDS011;19522;45.656;11.302;2023-06-26T05:24:42;4.28;;;2.72;;
33160;SDS011;19522;45.656;11.302;2023-06-26T05:27:14;5.85;;;3.45;;
33160;SDS011;19522;45.656;11.302;2023-06-26T05:29:46;4.43;;;3.42;;
33160;SDS011;19522;45.656;11.302;2023-06-26T05:32:12;11.18;;;3.75;;
33160;SDS011;19522;45.656;11.302;2023-06-26T05:34:42;4.22;;;3.30;;
33160;SDS011;19522;45.656;11.302;2023-06-26T05:37:12;4.03;;;3.13;;
33160;SDS011;19522;45.656;11.302;2023-06-26T05:39:45;4.32;;;3.20;;
33160;SDS011;19522;45.656;11.302;2023-06-26T05:42:11;5.72;;;3.03;;
33160;SDS011;19522;45.656;11.302;2023-06-26T05:44:37;4.10;;;2.90;;
33160;SDS011;19522;45.656;11.302;2023-06-26T05:47:02;5.57;;;3.30;;
33160;SDS011;19522;45.656;11.302;2023-06-26T05:49:28;5.70;;;3.50;;
33160;SDS011;19522;45.656;11.302;2023-06-26T05:51:53;5.15;;;3.47;;
33160;SDS011;19522;45.656;11.302;2023-06-26T05:54:23;4.75;;;3.25;;
33160;SDS011;19522;45.656;11.302;2023-06-26T05:56:49;6.45;;;3.10;;
33160;SDS011;19522;45.656;11.302;2023-06-26T05:59:21;4.82;;;3.70;;
33160;SDS011;19522;45.656;11.302;2023-06-26T06:01:51;4.32;;;3.15;;
33160;SDS011;19522;45.656;11.302;2023-06-26T06:04:17;6.35;;;3.50;;
33160;SDS011;19522;45.656;11.302;2023-06-26T06:06:43;5.95;;;3.30;;
33160;SDS011;19522;45.656;11.302;2023-06-26T06:09:08;4.88;;;3.40;;
33160;SDS011;19522;45.656;11.302;2023-06-26T06:11:34;6.97;;;3.78;;
33160;SDS011;19522;45.656;11.302;2023-06-26T06:13:59;5.38;;;3.50;;
33160;SDS011;19522;45.656;11.302;2023-06-26T06:16:25;6.35;;;3.63;;
33160;SDS011;19522;45.656;11.302;2023-06-26T06:18:53;6.10;;;3.63;;
33160;SDS011;19522;45.656;11.302;2023-06-26T06:21:21;4.18;;;3.05;;
33160;SDS011;19522;45.656;11.302;2023-06-26T06:23:47;6.07;;;3.42;;
33160;SDS011;19522;45.656;11.302;2023-06-26T06:26:12;4.63;;;3.30;;
33160;SDS011;19522;45.656;11.302;2023-06-26T06:28:38;5.30;;;3.35;;
33160;SDS011;19522;45.656;11.302;2023-06-26T06:31:04;4.45;;;3.33;;
33160;SDS011;19522;45.656;11.302;2023-06-26T06:33:30;4.90;;;3.50;;
33160;SDS011;19522;45.656;11.302;2023-06-26T06:35:55;6.25;;;3.50;;
33160;SDS011;19522;45.656;11.302;2023-06-26T06:38:21;5.05;;;3.45;;
33160;SDS011;19522;45.656;11.302;2023-06-26T06:40:46;4.25;;;3.28;;
33160;SDS011;19522;45.656;11.302;2023-06-26T06:43:12;4.95;;;3.50;;
33160;SDS011;19522;45.656;11.302;2023-06-26T06:45:37;5.22;;;3.55;;
33160;SDS011;19522;45.656;11.302;2023-06-26T06:48:04;5.28;;;3.55;;
33160;SDS011;19522;45.656;11.302;2023-06-26T06:50:29;6.28;;;3.80;;
33160;SDS011;19522;45.656;11.302;2023-06-26T06:52:55;5.25;;;3.75;;
33160;SDS011;19522;45.656;11.302;2023-06-26T06:55:21;8.07;;;4.07;;
33160;SDS011;19522;45.656;11.302;2023-06-26T06:57:47;6.88;;;4.10;;
33160;SDS011;19522;45.656;11.302;2023-06-26T07:00:13;6.93;;;3.97;;
33160;SDS011;19522;45.656;11.302;2023-06-26T07:02:40;8.43;;;4.03;;
33160;SDS011;19522;45.656;11.302;2023-06-26T07:05:07;7.40;;;4.50;;
33160;SDS011;19522;45.656;11.302;2023-06-26T07:07:33;5.53;;;3.97;;
33160;SDS011;19522;45.656;11.302;2023-06-26T07:10:00;6.78;;;4.32;;
33160;SDS011;19522;45.656;11.302;2023-06-26T07:12:28;6.43;;;4.78;;
33160;SDS011;19522;45.656;11.302;2023-06-26T07:14:54;5.65;;;4.35;;
33160;SDS011;19522;45.656;11.302;2023-06-26T07:17:21;7.28;;;4.32;;
33160;SDS011;19522;45.656;11.302;2023-06-26T07:19:46;8.65;;;4.78;;
33160;SDS011;19522;45.656;11.302;2023-06-26T07:22:12;7.95;;;5.32;;
33160;SDS011;19522;45.656;11.302;2023-06-26T07:24:38;11.55;;;6.60;;
33160;SDS011;19522;45.656;11.302;2023-06-26T07:27:04;11.07;;;7.47;;
33160;SDS011;19522;45.656;11.302;2023-06-26T07:29:29;13.00;;;7.43;;
33160;SDS011;19522;45.656;11.302;2023-06-26T07:31:55;10.63;;;6.43;;
33160;SDS011;19522;45.656;11.302;2023-06-26T07:34:20;10.98;;;6.38;;
33160;SDS011;19522;45.656;11.302;2023-06-26T07:36:46;9.75;;;6.35;;
33160;SDS011;19522;45.656;11.302;2023-06-26T07:39:11;9.13;;;5.85;;
33160;SDS011;19522;45.656;11.302;2023-06-26T07:41:37;9.88;;;6.93;;
33160;SDS011;19522;45.656;11.302;2023-06-26T07:44:03;15.23;;;9.23;;
33160;SDS011;19522;45.656;11.302;2023-06-26T07:46:28;9.35;;;6.60;;
33160;SDS011;19522;45.656;11.302;2023-06-26T07:48:54;9.30;;;5.75;;
33160;SDS011;19522;45.656;11.302;2023-06-26T07:51:20;13.02;;;8.95;;
33160;SDS011;19522;45.656;11.302;2023-06-26T07:53:46;17.45;;;9.95;;
33160;SDS011;19522;45.656;11.302;2023-06-26T07:56:11;13.25;;;7.68;;
33160;SDS011;19522;45.656;11.302;2023-06-26T07:58:37;12.23;;;8.85;;
33160;SDS011;19522;45.656;11.302;2023-06-26T08:01:02;12.05;;;7.55;;
33160;SDS011;19522;45.656;11.302;2023-06-26T08:03:31;11.40;;;7.65;;
33160;SDS011;19522;45.656;11.302;2023-06-26T08:05:56;8.23;;;5.80;;
33160;SDS011;19522;45.656;11.302;2023-06-26T08:08:22;11.38;;;6.47;;
33160;SDS011;19522;45.656;11.302;2023-06-26T08:10:47;9.50;;;5.85;;
33160;SDS011;19522;45.656;11.302;2023-06-26T08:13:13;8.13;;;6.35;;
33160;SDS011;19522;45.656;11.302;2023-06-26T08:15:38;8.48;;;6.82;;
33160;SDS011;19522;45.656;11.302;2023-06-26T08:18:04;12.60;;;9.13;;
33160;SDS011;19522;45.656;11.302;2023-06-26T08:20:30;11.23;;;7.78;;
33160;SDS011;19522;45.656;11.302;2023-06-26T08:22:55;9.07;;;6.47;;
33160;SDS011;19522;45.656;11.302;2023-06-26T08:25:21;8.77;;;6.80;;
33160;SDS011;19522;45.656;11.302;2023-06-26T08:27:47;8.48;;;6.75;;
33160;SDS011;19522;45.656;11.302;2023-06-26T08:30:13;9.63;;;6.47;;
33160;SDS011;19522;45.656;11.302;2023-06-26T08:32:38;8.68;;;5.95;;
33160;SDS011;19522;45.656;11.302;2023-06-26T08:35:06;9.52;;;6.07;;
33160;SDS011;19522;45.656;11.302;2023-06-26T08:37:32;7.07;;;5.80;;
33160;SDS011;19522;45.656;11.302;2023-06-26T08:40:01;10.57;;;6.28;;
33160;SDS011;19522;45.656;11.302;2023-06-26T08:42:26;7.82;;;5.68;;
33160;SDS011;19522;45.656;11.302;2023-06-26T08:44:52;9.88;;;5.30;;
33160;SDS011;19522;45.656;11.302;2023-06-26T08:47:17;8.07;;;5.72;;
33160;SDS011;19522;45.656;11.302;2023-06-26T08:49:49;8.55;;;5.85;;
33160;SDS011;19522;45.656;11.302;2023-06-26T08:52:24;9.48;;;5.18;;
33160;SDS011;19522;45.656;11.302;2023-06-26T08:54:59;9.10;;;5.63;;
33160;SDS011;19522;45.656;11.302;2023-06-26T08:57:26;7.22;;;5.20;;
33160;SDS011;19522;45.656;11.302;2023-06-26T08:59:56;10.50;;;5.63;;
33160;SDS011;19522;45.656;11.302;2023-06-26T09:02:22;9.70;;;5.22;;
33160;SDS011;19522;45.656;11.302;2023-06-26T09:04:48;9.20;;;5.70;;
33160;SDS011;19522;45.656;11.302;2023-06-26T09:07:16;8.73;;;6.30;;
33160;SDS011;19522;45.656;11.302;2023-06-26T09:09:42;10.45;;;5.70;;
33160;SDS011;19522;45.656;11.302;2023-06-26T09:12:08;8.15;;;6.07;;
33160;SDS011;19522;45.656;11.302;2023-06-26T09:14:34;10.02;;;6.43;;
33160;SDS011;19522;45.656;11.302;2023-06-26T09:17:01;8.40;;;6.07;;
33160;SDS011;19522;45.656;11.302;2023-06-26T09:19:27;7.93;;;5.40;;
33160;SDS011;19522;45.656;11.302;2023-06-26T09:21:52;8.10;;;5.78;;
33160;SDS011;19522;45.656;11.302;2023-06-26T09:24:19;9.43;;;6.25;;
33160;SDS011;19522;45.656;11.302;2023-06-26T09:26:46;11.23;;;6.28;;
33160;SDS011;19522;45.656;11.302;2023-06-26T09:29:13;6.90;;;5.60;;
33160;SDS011;19522;45.656;11.302;2023-06-26T09:31:39;8.43;;;6.20;;
33160;SDS011;19522;45.656;11.302;2023-06-26T09:34:05;7.82;;;5.82;;
33160;SDS011;19522;45.656;11.302;2023-06-26T09:36:31;12.25;;;6.70;;
33160;SDS011;19522;45.656;11.302;2023-06-26T09:39:05;8.55;;;5.40;;
33160;SDS011;19522;45.656;11.302;2023-06-26T09:44:05;8.77;;;5.63;;
33160;SDS011;19522;45.656;11.302;2023-06-26T09:46:31;8.98;;;5.72;;
33160;SDS011;19522;45.656;11.302;2023-06-26T09:49:30;8.48;;;5.88;;
33160;SDS011;19522;45.656;11.302;2023-06-26T09:51:48;9.30;;;5.97;;
33160;SDS011;19522;45.656;11.302;2023-06-26T09:54:16;8.23;;;5.60;;
33160;SDS011;19522;45.656;11.302;2023-06-26T09:56:42;8.38;;;6.05;;
33160;SDS011;19522;45.656;11.302;2023-06-26T09:59:08;7.55;;;5.97;;
33160;SDS011;19522;45.656;11.302;2023-06-26T10:01:36;7.40;;;6.15;;
33160;SDS011;19522;45.656;11.302;2023-06-26T10:04:05;8.30;;;5.65;;
33160;SDS011;19522;45.656;11.302;2023-06-26T10:06:35;6.90;;;5.82;;
33160;SDS011;19522;45.656;11.302;2023-06-26T10:09:02;8.70;;;5.95;;
33160;SDS011;19522;45.656;11.302;2023-06-26T10:11:40;10.70;;;6.30;;
33160;SDS011;19522;45.656;11.302;2023-06-26T10:14:11;9.27;;;6.50;;
33160;SDS011;19522;45.656;11.302;2023-06-26T10:16:38;10.35;;;6.65;;
33160;SDS011;19522;45.656;11.302;2023-06-26T10:19:08;7.63;;;6.50;;
33160;SDS011;19522;45.656;11.302;2023-06-26T10:21:36;7.38;;;5.53;;
33160;SDS011;19522;45.656;11.302;2023-06-26T10:24:06;7.90;;;5.75;;
33160;SDS011;19522;45.656;11.302;2023-06-26T10:26:35;13.15;;;6.50;;
33160;SDS011;19522;45.656;11.302;2023-06-26T10:29:07;7.77;;;5.93;;
33160;SDS011;19522;45.656;11.302;2023-06-26T10:31:34;8.02;;;5.45;;
33160;SDS011;19522;45.656;11.302;2023-06-26T10:34:02;9.27;;;5.90;;
33160;SDS011;19522;45.656;11.302;2023-06-26T10:36:30;8.90;;;5.53;;
33160;SDS011;19522;45.656;11.302;2023-06-26T10:39:06;8.30;;;6.22;;
33160;SDS011;19522;45.656;11.302;2023-06-26T10:41:41;8.30;;;6.07;;
33160;SDS011;19522;45.656;11.302;2023-06-26T10:44:08;7.22;;;5.97;;
33160;SDS011;19522;45.656;11.302;2023-06-26T10:46:53;9.27;;;6.00;;
33160;SDS011;19522;45.656;11.302;2023-06-26T10:49:29;9.02;;;5.93;;
33160;SDS011;19522;45.656;11.302;2023-06-26T10:52:03;9.45;;;6.03;;
33160;SDS011;19522;45.656;11.302;2023-06-26T10:54:30;7.43;;;5.68;;
33160;SDS011;19522;45.656;11.302;2023-06-26T10:56:57;9.40;;;6.32;;
33160;SDS011;19522;45.656;11.302;2023-06-26T10:59:25;10.65;;;5.70;;
33160;SDS011;19522;45.656;11.302;2023-06-26T11:02:03;8.02;;;5.80;;
33160;SDS011;19522;45.656;11.302;2023-06-26T11:04:50;10.95;;;6.20;;
33160;SDS011;19522;45.656;11.302;2023-06-26T11:07:22;7.13;;;5.53;;
33160;SDS011;19522;45.656;11.302;2023-06-26T11:10:02;9.80;;;5.95;;
33160;SDS011;19522;45.656;11.302;2023-06-26T11:14:59;9.67;;;5.97;;
33160;SDS011;19522;45.656;11.302;2023-06-26T11:17:25;10.13;;;6.10;;
33160;SDS011;19522;45.656;11.302;2023-06-26T11:19:51;8.57;;;6.40;;
33160;SDS011;19522;45.656;11.302;2023-06-26T11:22:18;10.57;;;5.35;;
33160;SDS011;19522;45.656;11.302;2023-06-26T11:24:44;10.65;;;5.90;;
33160;SDS011;19522;45.656;11.302;2023-06-26T11:27:11;9.00;;;5.70;;
33160;SDS011;19522;45.656;11.302;2023-06-26T11:29:36;10.63;;;6.13;;
33160;SDS011;19522;45.656;11.302;2023-06-26T11:32:03;13.02;;;6.50;;
33160;SDS011;19522;45.656;11.302;2023-06-26T11:34:30;8.65;;;5.97;;
33160;SDS011;19522;45.656;11.302;2023-06-26T11:36:57;10.95;;;5.65;;
33160;SDS011;19522;45.656;11.302;2023-06-26T11:39:23;8.52;;;5.50;;
33160;SDS011;19522;45.656;11.302;2023-06-26T11:41:48;8.07;;;5.72;;
33160;SDS011;19522;45.656;11.302;2023-06-26T11:44:14;10.88;;;5.88;;
33160;SDS011;19522;45.656;11.302;2023-06-26T11:46:45;14.07;;;6.35;;
33160;SDS011;19522;45.656;11.302;2023-06-26T11:49:11;8.82;;;4.68;;
33160;SDS011;19522;45.656;11.302;2023-06-26T11:51:36;7.55;;;4.78;;
33160;SDS011;19522;45.656;11.302;2023-06-26T11:54:09;11.45;;;5.47;;
33160;SDS011;19522;45.656;11.302;2023-06-26T11:56:40;6.57;;;4.85;;
33160;SDS011;19522;45.656;11.302;2023-06-26T11:59:07;8.82;;;5.38;;
33160;SDS011;19522;45.656;11.302;2023-06-26T12:01:42;11.20;;;5.65;;
33160;SDS011;19522;45.656;11.302;2023-06-26T12:04:12;10.45;;;5.63;;
33160;SDS011;19522;45.656;11.302;2023-06-26T12:06:43;15.52;;;5.68;;
33160;SDS011;19522;45.656;11.302;2023-06-26T12:09:17;10.95;;;4.95;;
33160;SDS011;19522;45.656;11.302;2023-06-26T12:11:51;6.90;;;4.60;;
33160;SDS011;19522;45.656;11.302;2023-06-26T12:14:22;11.98;;;4.60;;
33160;SDS011;19522;45.656;11.302;2023-06-26T12:17:03;8.40;;;4.95;;
33160;SDS011;19522;45.656;11.302;2023-06-26T12:19:36;9.68;;;5.53;;
33160;SDS011;19522;45.656;11.302;2023-06-26T12:22:07;8.25;;;4.80;;
33160;SDS011;19522;45.656;11.302;2023-06-26T12:24:37;9.95;;;5.13;;
33160;SDS011;19522;45.656;11.302;2023-06-26T12:27:12;7.38;;;4.97;;
33160;SDS011;19522;45.656;11.302;2023-06-26T12:29:45;9.52;;;4.40;;
33160;SDS011;19522;45.656;11.302;2023-06-26T12:32:17;8.48;;;5.10;;
33160;SDS011;19522;45.656;11.302;2023-06-26T12:34:47;9.75;;;4.93;;
33160;SDS011;19522;45.656;11.302;2023-06-26T12:37:18;8.93;;;4.55;;
33160;SDS011;19522;45.656;11.302;2023-06-26T12:42:22;6.60;;;4.30;;
33160;SDS011;19522;45.656;11.302;2023-06-26T12:44:49;6.55;;;4.50;;
33160;SDS011;19522;45.656;11.302;2023-06-26T12:47:16;8.75;;;4.85;;
33160;SDS011;19522;45.656;11.302;2023-06-26T12:49:49;6.65;;;4.40;;
33160;SDS011;19522;45.656;11.302;2023-06-26T12:52:16;8.10;;;4.72;;
33160;SDS011;19522;45.656;11.302;2023-06-26T12:54:52;9.40;;;4.80;;
33160;SDS011;19522;45.656;11.302;2023-06-26T12:57:19;9.10;;;4.40;;
33160;SDS011;19522;45.656;11.302;2023-06-26T12:59:44;11.65;;;4.80;;
33160;SDS011;19522;45.656;11.302;2023-06-26T13:02:10;9.82;;;4.80;;
33160;SDS011;19522;45.656;11.302;2023-06-26T13:04:39;8.85;;;4.70;;
33160;SDS011;19522;45.656;11.302;2023-06-26T13:07:06;7.80;;;4.45;;
33160;SDS011;19522;45.656;11.302;2023-06-26T13:09:32;8.27;;;4.63;;
33160;SDS011;19522;45.656;11.302;2023-06-26T13:11:59;6.60;;;5.00;;
33160;SDS011;19522;45.656;11.302;2023-06-26T13:14:25;7.25;;;4.13;;
33160;SDS011;19522;45.656;11.302;2023-06-26T13:16:51;8.18;;;4.80;;
33160;SDS011;19522;45.656;11.302;2023-06-26T13:19:16;5.75;;;4.35;;
33160;SDS011;19522;45.656;11.302;2023-06-26T13:21:44;7.53;;;4.97;;
33160;SDS011;19522;45.656;11.302;2023-06-26T13:24:10;8.68;;;4.88;;
33160;SDS011;19522;45.656;11.302;2023-06-26T13:26:36;8.25;;;4.55;;
33160;SDS011;19522;45.656;11.302;2023-06-26T13:29:01;6.85;;;4.75;;
33160;SDS011;19522;45.656;11.302;2023-06-26T13:31:27;7.90;;;4.90;;
33160;SDS011;19522;45.656;11.302;2023-06-26T13:33:53;7.32;;;4.88;;
33160;SDS011;19522;45.656;11.302;2023-06-26T13:36:19;5.75;;;4.20;;
33160;SDS011;19522;45.656;11.302;2023-06-26T13:38:46;11.32;;;5.00;;
33160;SDS011;19522;45.656;11.302;2023-06-26T13:41:13;7.78;;;4.55;;
33160;SDS011;19522;45.656;11.302;2023-06-26T13:43:39;6.28;;;4.38;;
33160;SDS011;19522;45.656;11.302;2023-06-26T13:46:04;7.15;;;4.85;;
33160;SDS011;19522;45.656;11.302;2023-06-26T13:48:30;8.52;;;5.05;;
33160;SDS011;19522;45.656;11.302;2023-06-26T13:50:56;7.18;;;4.43;;
33160;SDS011;19522;45.656;11.302;2023-06-26T13:53:23;7.22;;;4.13;;
33160;SDS011;19522;45.656;11.302;2023-06-26T13:55:49;8.07;;;4.50;;
33160;SDS011;19522;45.656;11.302;2023-06-26T13:58:17;5.80;;;4.28;;
33160;SDS011;19522;45.656;11.302;2023-06-26T14:00:47;12.52;;;4.88;;
33160;SDS011;19522;45.656;11.302;2023-06-26T14:03:13;7.65;;;4.68;;
33160;SDS011;19522;45.656;11.302;2023-06-26T14:05:38;7.40;;;5.35;;
33160;SDS011;19522;45.656;11.302;2023-06-26T14:08:04;7.55;;;4.90;;
33160;SDS011;19522;45.656;11.302;2023-06-26T14:10:32;10.85;;;4.18;;
33160;SDS011;19522;45.656;11.302;2023-06-26T14:13:01;9.07;;;4.80;;
33160;SDS011;19522;45.656;11.302;2023-06-26T14:15:28;10.07;;;4.50;;
33160;SDS011;19522;45.656;11.302;2023-06-26T14:17:54;12.85;;;4.90;;
33160;SDS011;19522;45.656;11.302;2023-06-26T14:20:20;6.22;;;4.72;;
33160;SDS011;19522;45.656;11.302;2023-06-26T14:22:47;8.65;;;4.40;;
33160;SDS011;19522;45.656;11.302;2023-06-26T14:25:14;7.00;;;4.47;;
33160;SDS011;19522;45.656;11.302;2023-06-26T14:27:40;7.00;;;4.68;;
33160;SDS011;19522;45.656;11.302;2023-06-26T14:30:06;10.13;;;4.40;;
33160;SDS011;19522;45.656;11.302;2023-06-26T14:32:33;10.40;;;4.85;;
33160;SDS011;19522;45.656;11.302;2023-06-26T14:34:59;13.75;;;5.15;;
33160;SDS011;19522;45.656;11.302;2023-06-26T14:37:25;7.70;;;4.47;;
33160;SDS011;19522;45.656;11.302;2023-06-26T14:39:52;9.82;;;4.70;;
33160;SDS011;19522;45.656;11.302;2023-06-26T14:42:17;8.52;;;5.07;;
33160;SDS011;19522;45.656;11.302;2023-06-26T14:44:43;8.95;;;4.53;;
33160;SDS011;19522;45.656;11.302;2023-06-26T14:47:11;7.30;;;4.90;;
33160;SDS011;19522;45.656;11.302;2023-06-26T14:49:37;14.75;;;5.38;;
33160;SDS011;19522;45.656;11.302;2023-06-26T14:52:06;8.88;;;4.88;;